Meteo Giornale » Osservazioni meteo Italia » Cervia

ore: 03:55 - Osservazioni Meteo Cervia
Lat. 44° 13' N Lon. 12° 18' E Alt. 6 metri s.l.m.

coperto_temporali Europe/Rome

23 °C

Temporale

Temp. 24 Ore

20 °C

30 °C

Ovest

22.2 Km/h

Dew point 16 °C

Umidità 64 %

Visibilità  10 Km

Il sole sorge alle ore 06:01

Il sole tramonta alle ore 20:32

Data e Ora Cielo e Fenomeni T °C DP °C Um. % Pres. hPa Vis. km Vento km/h
Oggi h: 03:55 coperto_temporali Temporale 23 16 64 1007 10 O 22.2
Oggi h: 03:02 coperto_temporali Temporale 24 16 60 1007 10 O 40.7
Oggi h: 02:55 sereno Sereno 24 15 57 1007 10 O/SO 33.3
Oggi h: 01:55 sereno Sereno 24 16 60 1007 10 O 11.1
Oggi h: 00:55 sereno Sereno 24 13 50 1007 10 O/NO 14.8
Ieri h: 23:55 sereno Sereno 25 12 44 1009 10 O 11.1
Ieri h: 22:55 sereno Sereno 23 22 94 1008 10 O 9.3
Ieri h: 21:55 sereno Sereno 24 23 94 1008 10 N 1.8
Ieri h: 20:55 sereno Sereno 25 23 88 1009 10 E/SE 7.4
Ieri h: 19:55 sereno Sereno 26 23 83 1009 10 E/SE 13
Ieri h: 17:55 sereno Sereno 27 23 78 1009 10 E/SE 18.5
Ieri h: 16:55 sereno Sereno 27 23 78 1010 10 E/SE 18.5
Ieri h: 15:55 sereno Sereno 27 21 69 1010 10 E/SE 22.2
Ieri h: 13:55 poco_nuvoloso Poco Nuvoloso 30 12 33 1011 10 E 11.1
Ieri h: 12:55 poco_nuvoloso Poco Nuvoloso 30 16 42 1012 10 E 16.7
Ieri h: 11:55 poco_nuvoloso Poco Nuvoloso 30 16 42 1012 10 NE 9.3
Ieri h: 10:55 sereno Sereno 27 14 44 1012 10 N 3.7
Ieri h: 09:55 sereno Sereno 26 16 54 1012 10 N 1.8
Ieri h: 08:55 sereno Sereno 24 17 64 1012 10 N 1.8
Ieri h: 07:55 sereno Sereno 21 15 68 1012 10 N 1.8
Ieri h: 06:55 sereno Sereno 20 14 68 1012 10 S/SO 9.3
Ieri h: 05:55 sereno Sereno 21 14 64 1012 10 SO 7.4
Ieri h: 04:55 sereno Sereno 21 11 52 1012 10 S/SO 9.3